Thursday, May 24, 2018, 12:31 AM EDT
Back to Local

KJFK, Kennedy International Airport

Location: Rosedale, NY, United States Lat: 40.633
Local Time: 12:31 AM EDT ( 4:31 GMT) Lon: -73.767
Time Zone: US/Eastern Elev: 13 ft

Show me the last for .
Show Decoded

2018-05-23 23:51 METAR KJFK 240351Z 31007KT 10SM FEW250 23/10 A3001 RMK AO2 SLP162 T02330100 =
2018-05-23 22:51 METAR KJFK 240251Z 29009KT 10SM SCT250 24/10 A3000 RMK AO2 SLP158 T02390100
                 51015 =
2018-05-23 21:51 METAR KJFK 240151Z 29009KT 10SM SCT250 24/11 A2999 RMK AO2 SLP156 T02440106 =
2018-05-23 20:51 METAR KJFK 240051Z 30008KT 10SM SCT250 26/10 A2998 RMK AO2 SLP150 T02560100 =
2018-05-23 19:51 METAR KJFK 232351Z 27007KT 10SM FEW070 SCT250 26/11 A2996 RMK AO2 SLP144
                 T02560111 10278 20244 53009 =
2018-05-23 18:51 METAR KJFK 232251Z 30010KT 10SM FEW070 FEW250 27/12 A2994 RMK AO2 SLP138
                 T02670117 =
2018-05-23 17:51 METAR KJFK 232151Z 32009KT 10SM FEW060 SCT250 27/11 A2993 RMK AO2 SLP136
                 T02720111 =
2018-05-23 16:51 METAR KJFK 232051Z 02014KT 10SM FEW055 SCT250 28/10 A2993 RMK AO2 SLP135
                 T02780100 56006 =
2018-05-23 15:51 METAR KJFK 231951Z 34012KT 10SM FEW050 SCT250 27/12 A2993 RMK AO2 SLP136
                 T02670122 =
2018-05-23 14:51 METAR KJFK 231851Z 36011KT 10SM FEW036 FEW050 SCT250 26/14 A2994 RMK AO2 SLP138
                 T02560139 =
2018-05-23 13:51 METAR KJFK 231751Z 33014G19KT 10SM FEW033 SCT048 SCT250 24/16 A2995 RMK AO2
                 SLP140 T02440161 10244 20161 51002 =
2018-05-23 12:51 METAR KJFK 231651Z 35013KT 10SM FEW027 BKN034 BKN050 23/17 A2995 RMK AO2 SLP140
                 T02280167 =
2018-05-23 11:51 METAR KJFK 231551Z 35011KT 10SM SCT024 BKN034 BKN065 23/17 A2995 RMK AO2 SLP141
                 T02280172 =
2018-05-23 10:51 METAR KJFK 231451Z VRB04KT 7SM SCT025 SCT060 21/18 A2994 RMK AO2 SLP138
                 T02060178 51005 =
2018-05-23 09:51 METAR KJFK 231351Z VRB04KT 5SM BR FEW005 FEW020 BKN035 BKN130 18/17 A2994 RMK
                 AO2 SLP137 VIS SE 2 1/2 T01830172 =
2018-05-23 08:51 METAR KJFK 231251Z 21004KT 5SM BR FEW006 SCT060 BKN130 BKN250 17/17 A2994 RMK
                 AO2 SLP137 VIS SE-S 2 1/2 T01720167 =
2018-05-23 07:51 METAR KJFK 231151Z 22006KT 4SM BR SCT006 BKN060 BKN100 BKN250 16/16 A2993 RMK
                 AO2 SLP133 VIS SE-S 2 1/2 SCT V BKN 60020 70037 T01610161 10161 20139 53008 =
2018-05-23 07:43 METAR KJFK 231143Z 21005KT 4SM BR SCT006 BKN060 BKN100 BKN250 16/16 A2992 RMK
                 AO2 T01610161 =
2018-05-23 07:06 METAR KJFK 231106Z 26004KT 5SM BR BKN006 BKN100 BKN250 16/16 A2992 RMK AO2
                 T01560156 =
2018-05-23 06:51 METAR KJFK 231051Z 22005KT 5SM BR SCT006 BKN100 BKN250 15/15 A2991 RMK AO2
                 RAB0956E18 SLP129 P0000 T01500150 =
2018-05-23 06:02 METAR KJFK 231002Z 00000KT 7SM -RA OVC005 15/14 A2991 RMK AO2 RAB0956 P0000
                 T01500144 =
2018-05-23 05:51 METAR KJFK 230951Z 00000KT 5SM BR OVC004 15/15 A2990 RMK AO2 RAE33 TSE14 SLP125
                 P0003 T01500150 =
2018-05-23 05:15 METAR KJFK 230915Z 01006KT 6SM -RA BR BKN004 OVC100 14/14 A2990 RMK AO2 LTG DSNT
                 E AND SE TSE14 P0003 T01440144 =
2018-05-23 04:51 METAR KJFK 230851Z 20007KT 4SM TSRA BR BKN004 BKN038CB OVC100 14/14 A2990 RMK
                 AO2 LTG DSNT SE TSE0759B16 SLP126 OCNL LTGIC OHD-SE TS OHD-SE MOV SE P0017 60017
                 T01440144 58014 =
2018-05-23 04:45 METAR KJFK 230845Z 22009KT 4SM TSRA BR BKN004 OVC040CB 14/14 A2993 RMK AO2 LTG
                 DSNT SE TSE0759B16 OCNL LTGIC OHD-SE TS OHD-SE MOV SE P0015 =
2018-05-23 04:16 METAR KJFK 230816Z 18009KT 6SM -TSRA BR SCT006 BKN050CB OVC095 14/14 A2991 RMK
                 AO2 TSE0759B16 OCNL LTGICCA OHD-S TS OHD-S MOV SE P0006 T01440144 =
2018-05-23 04:05 METAR KJFK 230805Z 18008KT 6SM VCTS RA BR BKN007 BKN050 OVC090 14/14 A2992 RMK
                 AO2 TSE0759 OCNL LTGIC DSNT SW CB DSNT SW MOV SE P0003 T01440144 =
2018-05-23 03:51 METAR KJFK 230751Z 19005KT 10SM -RA OVC007 14/14 A2992 RMK AO2 LTG DSNT SW
                 RAB0658E21B46 SLP130 P0000 T01440144 =
2018-05-23 02:51 METAR KJFK 230651Z 23005KT 10SM BKN007 OVC014 14/14 A2994 RMK AO2 SLP137
                 T01440139 =
2018-05-23 01:51 METAR KJFK 230551Z 00000KT 10SM BKN007 OVC014 14/14 A2994 RMK AO2 SLP139 60001
                 T01440144 10144 20139 56019 =
2018-05-23 00:51 METAR KJFK 230451Z 00000KT 10SM OVC009 14/14 A2995 RMK AO2 SLP143 T01440139
                 401830133 =

Support USWX by starting your Amazon purchase here.